Time;durP1;ratioP1;P1;durP2;ratioP2;P2;SDS_P1;SDS_P2;PMS_P1;PMS_P2;Temp;Humidity;BMP_temperature;BMP_pressure;BME280_temperature;BME280_humidity;BME280_pressure;Samples;Min_cycle;Max_cycle;Signal;HPM_P1;HPM_P2
2021/05/22 00:00:37;;;;;;;0.98;0.98;;;12.60;99.90;;;;;;4882695;29;20993;-76
2021/05/22 00:03:03;;;;;;;1.07;1.07;;;12.50;99.90;;;;;;4899145;29;20446;-75
2021/05/22 00:05:28;;;;;;;1.00;1.00;;;12.50;99.90;;;;;;4877751;29;20421;-76
2021/05/22 00:07:54;;;;;;;0.90;0.90;;;12.60;99.90;;;;;;4880420;29;20417;-76
2021/05/22 00:10:20;;;;;;;0.80;0.80;;;12.60;99.90;;;;;;4886568;29;20415;-77
2021/05/22 00:12:46;;;;;;;0.88;0.88;;;12.60;99.90;;;;;;4880622;29;20492;-75
2021/05/22 00:15:14;;;;;;;0.80;0.80;;;12.60;99.90;;;;;;4886302;29;20409;-75
2021/05/22 00:17:40;;;;;;;0.85;0.85;;;12.50;99.90;;;;;;4879551;29;20422;-76
2021/05/22 00:20:06;;;;;;;1.17;1.07;;;12.50;99.90;;;;;;4895735;29;20409;-76
2021/05/22 00:22:31;;;;;;;0.88;0.88;;;12.50;99.90;;;;;;4898655;29;20494;-74
2021/05/22 00:24:57;;;;;;;1.10;0.95;;;12.50;99.90;;;;;;4880565;29;21065;-77
2021/05/22 00:27:23;;;;;;;0.80;0.80;;;12.60;99.90;;;;;;4877668;29;20394;-76
2021/05/22 00:29:48;;;;;;;0.68;0.68;;;12.50;99.90;;;;;;4894895;29;20395;-77
2021/05/22 00:32:14;;;;;;;0.80;0.80;;;12.50;99.90;;;;;;4896938;29;20396;-78
2021/05/22 00:34:40;;;;;;;0.80;0.80;;;12.50;99.90;;;;;;4895235;29;21168;-76
2021/05/22 00:37:05;;;;;;;0.63;0.63;;;12.50;99.90;;;;;;4897453;29;20408;-76
2021/05/22 00:39:31;;;;;;;0.90;0.90;;;12.50;99.90;;;;;;4900053;29;20405;-77
2021/05/22 00:41:58;;;;;;;0.87;0.80;;;12.50;99.90;;;;;;4897489;29;20435;-76
2021/05/22 00:44:30;;;;;;;0.80;0.80;;;12.40;99.90;;;;;;4898559;29;20786;-78
2021/05/22 00:46:56;;;;;;;0.93;0.90;;;12.50;99.90;;;;;;4903782;29;20417;-74
2021/05/22 00:49:21;;;;;;;2.10;0.90;;;12.40;99.90;;;;;;4890735;29;20502;-75
2021/05/22 00:51:47;;;;;;;0.80;0.80;;;12.40;99.90;;;;;;4897497;29;20400;-77
2021/05/22 00:54:13;;;;;;;0.70;0.70;;;12.30;99.90;;;;;;4883052;29;20410;-74
2021/05/22 00:56:38;;;;;;;0.80;0.80;;;12.30;99.90;;;;;;4882285;29;20427;-75
2021/05/22 00:59:04;;;;;;;0.80;0.80;;;12.30;99.90;;;;;;4882690;29;20488;-76
2021/05/22 01:01:30;;;;;;;1.10;1.00;;;12.20;99.90;;;;;;4914064;29;20400;-76
2021/05/22 01:03:55;;;;;;;1.00;1.00;;;12.10;99.90;;;;;;4880598;29;20405;-77
2021/05/22 01:06:24;;;;;;;0.80;0.80;;;12.20;99.90;;;;;;4910757;29;20403;-76
2021/05/22 01:08:58;;;;;;;0.80;0.80;;;12.10;99.90;;;;;;4920086;29;20413;-74
2021/05/22 01:11:29;;;;;;;0.90;0.90;;;12.10;99.90;;;;;;4892285;29;20435;-76
2021/05/22 01:13:59;;;;;;;0.95;0.95;;;12.10;99.90;;;;;;4912078;29;20398;-73
2021/05/22 01:16:25;;;;;;;1.60;0.90;;;12.10;99.90;;;;;;4873137;29;20415;-75
2021/05/22 01:18:50;;;;;;;0.82;0.82;;;12.10;99.90;;;;;;4883339;29;20816;-76
2021/05/22 01:21:16;;;;;;;1.02;0.82;;;12.10;99.90;;;;;;4897641;29;20403;-74
2021/05/22 01:23:46;;;;;;;0.80;0.80;;;12.00;99.90;;;;;;4897292;29;20824;-74
2021/05/22 01:26:12;;;;;;;0.93;0.93;;;12.00;99.90;;;;;;4882578;29;20403;-79
2021/05/22 01:28:37;;;;;;;1.20;1.10;;;12.00;99.90;;;;;;4880946;29;20402;-75
2021/05/22 01:31:03;;;;;;;0.85;0.85;;;12.00;99.90;;;;;;4881568;29;20909;-75
2021/05/22 01:33:29;;;;;;;0.80;0.80;;;12.00;99.90;;;;;;4875684;29;20421;-75
2021/05/22 01:35:55;;;;;;;0.80;0.80;;;12.10;99.90;;;;;;4896952;29;20442;-74
2021/05/22 01:38:21;;;;;;;0.85;0.85;;;12.10;99.90;;;;;;4897551;29;20511;-76
2021/05/22 01:40:46;;;;;;;0.80;0.80;;;12.10;99.90;;;;;;4896008;29;20415;-75
2021/05/22 01:43:12;;;;;;;0.80;0.80;;;12.10;99.90;;;;;;4866235;29;20412;-76
2021/05/22 01:45:42;;;;;;;0.80;0.80;;;12.20;99.90;;;;;;4913049;29;20400;-75
2021/05/22 01:48:10;;;;;;;0.77;0.77;;;12.20;99.90;;;;;;4870215;29;20421;-74
2021/05/22 01:50:38;;;;;;;0.80;0.80;;;12.20;99.90;;;;;;4918736;29;20411;-76
2021/05/22 01:53:07;;;;;;;1.30;1.10;;;12.20;99.90;;;;;;4884221;29;20413;-75
2021/05/22 01:55:32;;;;;;;3.65;1.02;;;12.20;99.90;;;;;;4882903;29;20787;-76
2021/05/22 01:57:58;;;;;;;0.90;0.90;;;12.20;99.90;;;;;;4861577;29;20934;-77
2021/05/22 02:00:25;;;;;;;1.00;0.90;;;12.20;99.90;;;;;;4880503;29;21130;-79
2021/05/22 02:02:55;;;;;;;1.67;1.15;;;12.30;99.90;;;;;;4911854;29;20815;-77
2021/05/22 02:05:20;;;;;;;2.00;1.10;;;12.20;99.90;;;;;;4912463;29;20414;-75
2021/05/22 02:07:46;;;;;;;1.10;1.00;;;12.20;99.90;;;;;;4897618;29;20404;-79
2021/05/22 02:10:12;;;;;;;0.80;0.80;;;12.20;99.90;;;;;;4897134;29;20395;-76
2021/05/22 02:12:38;;;;;;;1.00;1.00;;;12.20;99.90;;;;;;4896641;29;20416;-74
2021/05/22 02:15:04;;;;;;;0.85;0.85;;;12.30;99.90;;;;;;4912946;29;20419;-76
2021/05/22 02:17:29;;;;;;;1.88;1.00;;;12.30;99.90;;;;;;4896488;29;20416;-77
2021/05/22 02:19:55;;;;;;;0.90;0.90;;;12.30;99.90;;;;;;4880695;29;20771;-77
2021/05/22 02:22:22;;;;;;;1.02;1.02;;;12.30;99.90;;;;;;4897574;29;20556;-78
2021/05/22 02:24:50;;;;;;;0.93;0.93;;;12.30;99.90;;;;;;4878658;29;20397;-76
2021/05/22 02:27:16;;;;;;;0.82;0.82;;;12.30;99.90;;;;;;4881678;29;20415;-79
2021/05/22 02:29:42;;;;;;;0.87;0.87;;;12.30;99.90;;;;;;4879517;29;20412;-79
2021/05/22 02:32:08;;;;;;;1.00;1.00;;;12.20;99.90;;;;;;4862912;29;20434;-78
2021/05/22 02:34:36;;;;;;;1.00;1.00;;;12.30;99.90;;;;;;4882854;29;20401;-78
2021/05/22 02:37:02;;;;;;;0.90;0.90;;;12.20;99.90;;;;;;4898827;29;20508;-81
2021/05/22 02:39:27;;;;;;;0.93;0.93;;;12.40;99.90;;;;;;4883436;29;20412;-78
2021/05/22 02:41:53;;;;;;;1.00;1.00;;;12.40;99.90;;;;;;4880557;29;20775;-80
2021/05/22 02:44:19;;;;;;;1.00;1.00;;;12.40;99.90;;;;;;4914079;29;20982;-76
2021/05/22 02:46:47;;;;;;;0.90;0.90;;;12.40;99.90;;;;;;4881726;29;20756;-78
2021/05/22 02:49:14;;;;;;;0.90;0.90;;;12.40;99.90;;;;;;4898814;29;20408;-78
2021/05/22 02:51:40;;;;;;;0.85;0.85;;;12.40;99.90;;;;;;4882387;29;20406;-82
2021/05/22 02:54:06;;;;;;;1.00;1.00;;;12.50;99.90;;;;;;4897659;29;20400;-77
2021/05/22 02:56:31;;;;;;;1.17;1.17;;;12.40;99.90;;;;;;4914193;29;20400;-78
2021/05/22 02:58:57;;;;;;;0.80;0.80;;;12.40;99.90;;;;;;4913581;29;20414;-78
2021/05/22 03:01:24;;;;;;;1.00;1.00;;;12.50;99.90;;;;;;4912732;29;20412;-78
2021/05/22 03:03:50;;;;;;;1.10;1.00;;;12.50;99.90;;;;;;4898613;29;20747;-78
2021/05/22 03:06:15;;;;;;;0.90;0.90;;;12.70;99.90;;;;;;4897531;29;20497;-77
2021/05/22 03:08:45;;;;;;;1.10;1.10;;;12.50;99.90;;;;;;4872239;29;20441;-77
2021/05/22 03:11:11;;;;;;;0.90;0.90;;;12.60;99.90;;;;;;4912031;29;20406;-76
2021/05/22 03:13:37;;;;;;;0.90;0.90;;;12.60;99.90;;;;;;4893593;29;20411;-78
2021/05/22 03:16:03;;;;;;;0.95;0.95;;;12.60;99.90;;;;;;4912912;29;20486;-77
2021/05/22 03:18:30;;;;;;;0.80;0.80;;;12.60;99.90;;;;;;4867331;29;21500;-77
2021/05/22 03:20:56;;;;;;;1.20;1.10;;;12.50;99.90;;;;;;4882224;29;20413;-79
2021/05/22 03:23:22;;;;;;;3.43;1.20;;;12.70;99.90;;;;;;4882976;29;20405;-77
2021/05/22 03:25:47;;;;;;;0.80;0.80;;;12.50;99.90;;;;;;4889601;29;20443;-76
2021/05/22 03:28:13;;;;;;;0.90;0.90;;;12.50;99.90;;;;;;4893734;29;20400;-79
2021/05/22 03:30:39;;;;;;;1.40;0.90;;;12.50;99.90;;;;;;4903128;29;20461;-77
2021/05/22 03:33:05;;;;;;;0.90;0.90;;;12.50;99.90;;;;;;4907024;29;20391;-77
2021/05/22 03:35:30;;;;;;;0.90;0.90;;;12.60;99.90;;;;;;4902433;29;20411;-80
2021/05/22 03:37:56;;;;;;;0.90;0.90;;;12.60;99.90;;;;;;4902179;29;20479;-77
2021/05/22 03:40:22;;;;;;;0.80;0.80;;;12.60;99.90;;;;;;4901743;29;20442;-77
2021/05/22 03:42:48;;;;;;;1.00;1.00;;;12.60;99.90;;;;;;4902162;29;20411;-78
2021/05/22 03:45:14;;;;;;;0.93;0.93;;;12.60;99.90;;;;;;4911376;29;20811;-82
2021/05/22 03:47:39;;;;;;;1.10;0.90;;;12.60;99.90;;;;;;4877753;29;20855;-78
2021/05/22 03:50:05;;;;;;;1.73;0.93;;;12.60;99.90;;;;;;4901420;29;20422;-77
2021/05/22 03:52:31;;;;;;;0.95;0.93;;;12.60;99.90;;;;;;4870088;29;20784;-76
2021/05/22 03:54:57;;;;;;;1.00;1.00;;;12.60;99.90;;;;;;4885483;29;20499;-78
2021/05/22 03:57:23;;;;;;;1.10;1.00;;;12.70;99.90;;;;;;4901353;29;20417;-76
2021/05/22 03:59:49;;;;;;;0.70;0.70;;;12.70;99.90;;;;;;4912177;29;20401;-77
2021/05/22 04:02:14;;;;;;;0.90;0.90;;;12.70;99.90;;;;;;4873759;29;20425;-81
2021/05/22 04:04:40;;;;;;;0.90;0.90;;;12.60;99.90;;;;;;4869966;29;20411;-77
2021/05/22 04:07:05;;;;;;;0.95;0.95;;;12.60;99.90;;;;;;4883521;29;20462;-80
2021/05/22 04:09:31;;;;;;;0.80;0.80;;;12.60;99.90;;;;;;4870407;29;20400;-77
2021/05/22 04:11:57;;;;;;;1.05;1.05;;;12.60;99.90;;;;;;4899346;29;20414;-77
2021/05/22 04:14:22;;;;;;;1.00;1.00;;;12.60;99.90;;;;;;4869137;29;20456;-83
2021/05/22 04:16:48;;;;;;;1.10;1.00;;;12.60;99.90;;;;;;4900179;29;20455;-79
2021/05/22 04:19:14;;;;;;;0.83;0.83;;;12.60;99.90;;;;;;4884492;29;20690;-76
2021/05/22 04:21:39;;;;;;;2.15;0.90;;;12.60;99.90;;;;;;4900532;29;20424;-79
2021/05/22 04:24:05;;;;;;;1.20;1.10;;;12.60;99.90;;;;;;4900365;29;20395;-81
2021/05/22 04:26:31;;;;;;;0.70;0.70;;;12.60;99.90;;;;;;4880252;29;20517;-77
2021/05/22 04:28:57;;;;;;;0.75;0.75;;;12.70;99.90;;;;;;4897676;29;20979;-77
2021/05/22 04:31:22;;;;;;;1.30;1.00;;;12.70;99.90;;;;;;4911926;29;20948;-76
2021/05/22 04:33:48;;;;;;;0.73;0.73;;;12.70;99.90;;;;;;4881444;29;20409;-77
2021/05/22 04:36:14;;;;;;;0.77;0.77;;;12.70;99.90;;;;;;4913866;29;20771;-77
2021/05/22 04:38:40;;;;;;;0.70;0.70;;;12.70;99.90;;;;;;4897141;29;20421;-82
2021/05/22 04:41:05;;;;;;;0.68;0.68;;;12.80;99.90;;;;;;4915299;29;20392;-81
2021/05/22 04:43:31;;;;;;;0.83;0.83;;;12.80;99.90;;;;;;4884139;29;20407;-78
2021/05/22 04:45:57;;;;;;;0.70;0.70;;;12.90;99.90;;;;;;4899336;29;20399;-81
2021/05/22 04:48:22;;;;;;;0.93;0.93;;;12.90;99.90;;;;;;4928263;29;20417;-78
2021/05/22 04:50:48;;;;;;;1.40;0.90;;;13.00;99.90;;;;;;4904522;29;20404;-76
2021/05/22 04:53:14;;;;;;;0.70;0.70;;;13.00;99.90;;;;;;4915319;29;20406;-79
2021/05/22 04:55:40;;;;;;;0.73;0.73;;;13.00;99.90;;;;;;4931398;29;20452;-77
2021/05/22 04:58:05;;;;;;;2.25;0.90;;;13.10;99.90;;;;;;4930890;29;20404;-76
2021/05/22 05:00:31;;;;;;;0.73;0.73;;;13.10;99.90;;;;;;4931028;29;20413;-81
2021/05/22 05:02:57;;;;;;;0.73;0.73;;;13.10;99.90;;;;;;4900539;29;20412;-82
2021/05/22 05:05:23;;;;;;;1.00;1.00;;;13.10;99.90;;;;;;4899879;29;20808;-79
2021/05/22 05:07:49;;;;;;;1.10;1.00;;;13.10;99.90;;;;;;4928250;29;20405;-76
2021/05/22 05:10:14;;;;;;;0.90;0.90;;;13.10;99.90;;;;;;4874500;29;20411;-82
2021/05/22 05:12:40;;;;;;;0.90;0.90;;;13.20;99.90;;;;;;4888432;29;20416;-77
2021/05/22 05:15:06;;;;;;;0.67;0.67;;;13.10;99.90;;;;;;4900084;29;20408;-76
2021/05/22 05:17:32;;;;;;;0.80;0.80;;;13.10;99.90;;;;;;4899188;29;20422;-82
2021/05/22 05:19:58;;;;;;;0.88;0.88;;;13.20;99.90;;;;;;4884052;29;20400;-75
2021/05/22 05:22:26;;;;;;;0.90;0.90;;;13.20;99.90;;;;;;4881302;29;20934;-76
2021/05/22 05:24:52;;;;;;;0.88;0.88;;;13.30;99.90;;;;;;4882578;29;20401;-80
2021/05/22 05:27:17;;;;;;;0.82;0.82;;;13.40;99.90;;;;;;4915429;29;20479;-76
2021/05/22 05:29:43;;;;;;;0.80;0.80;;;13.30;99.90;;;;;;4893634;29;20439;-79
2021/05/22 05:32:09;;;;;;;0.70;0.70;;;13.30;99.90;;;;;;4898800;29;20432;-78
2021/05/22 05:34:34;;;;;;;0.70;0.70;;;13.40;99.90;;;;;;4868296;29;20400;-74
2021/05/22 05:37:00;;;;;;;0.57;0.57;;;13.40;99.90;;;;;;4882406;29;20740;-76
2021/05/22 05:39:26;;;;;;;0.70;0.70;;;13.50;99.90;;;;;;4898901;29;20399;-77
2021/05/22 05:41:52;;;;;;;0.65;0.63;;;13.60;99.90;;;;;;4883580;29;20403;-80
2021/05/22 05:44:17;;;;;;;0.80;0.80;;;13.60;99.90;;;;;;4867438;29;20411;-77
2021/05/22 05:46:43;;;;;;;0.88;0.88;;;13.60;99.90;;;;;;4880013;29;20495;-77
2021/05/22 05:49:09;;;;;;;0.88;0.80;;;13.60;99.90;;;;;;4870961;29;20406;-82
2021/05/22 05:51:34;;;;;;;2.50;0.83;;;13.70;99.90;;;;;;4914665;29;20434;-80
2021/05/22 05:54:00;;;;;;;0.75;0.75;;;13.70;99.90;;;;;;4883636;29;20406;-83
2021/05/22 05:56:26;;;;;;;0.80;0.80;;;13.80;99.90;;;;;;4896119;29;20409;-77
2021/05/22 05:58:51;;;;;;;0.73;0.73;;;13.80;99.90;;;;;;4899007;29;20423;-78
2021/05/22 06:01:17;;;;;;;0.67;0.67;;;14.00;99.90;;;;;;4897763;29;20402;-76
2021/05/22 06:03:43;;;;;;;0.80;0.80;;;14.10;99.90;;;;;;4895354;29;20824;-78
2021/05/22 06:06:09;;;;;;;1.45;1.35;;;14.10;99.90;;;;;;4888578;29;20413;-77
2021/05/22 06:08:35;;;;;;;1.63;1.10;;;14.20;99.90;;;;;;4909198;29;20424;-75
2021/05/22 06:11:02;;;;;;;0.85;0.85;;;14.30;99.90;;;;;;4880429;29;20782;-81
2021/05/22 06:13:30;;;;;;;0.80;0.80;;;14.40;99.90;;;;;;4879742;29;20434;-75
2021/05/22 06:18:32;;;;;;;0.70;0.70;;;14.50;99.90;;;;;;4887283;29;21346;-76
2021/05/22 06:20:58;;;;;;;0.70;0.70;;;14.50;99.90;;;;;;4905148;29;20406;-78
2021/05/22 06:23:24;;;;;;;1.08;0.73;;;14.40;99.90;;;;;;4880452;29;20415;-75
2021/05/22 06:25:50;;;;;;;0.83;0.80;;;14.40;99.90;;;;;;4886582;29;20408;-75
2021/05/22 06:28:16;;;;;;;0.80;0.80;;;14.40;99.90;;;;;;4879161;29;20416;-74
2021/05/22 06:30:42;;;;;;;1.10;0.85;;;14.50;99.90;;;;;;4880646;29;20474;-76
2021/05/22 06:33:07;;;;;;;0.70;0.70;;;14.60;99.90;;;;;;4870022;29;20842;-75
2021/05/22 06:35:33;;;;;;;0.70;0.70;;;14.50;99.90;;;;;;4897232;29;20471;-84
2021/05/22 06:37:59;;;;;;;0.82;0.70;;;14.60;99.90;;;;;;4893367;29;20714;-85
2021/05/22 06:40:24;;;;;;;0.73;0.73;;;14.70;99.90;;;;;;4878174;29;20459;-81
2021/05/22 06:42:50;;;;;;;0.60;0.60;;;14.70;99.90;;;;;;4893862;29;20400;-83
2021/05/22 06:45:17;;;;;;;0.70;0.70;;;14.80;99.90;;;;;;4894601;29;20529;-82
2021/05/22 06:47:43;;;;;;;1.27;0.70;;;14.90;99.90;;;;;;4864254;29;20475;-78
2021/05/22 06:50:09;;;;;;;0.80;0.80;;;14.90;99.90;;;;;;4880683;29;20423;-81
2021/05/22 06:52:35;;;;;;;0.70;0.70;;;14.90;99.90;;;;;;4895118;29;20926;-80
2021/05/22 06:55:01;;;;;;;1.30;0.90;;;15.00;99.90;;;;;;4872384;29;20467;-75
2021/05/22 06:57:26;;;;;;;0.82;0.82;;;14.90;99.90;;;;;;4901768;29;20403;-76
2021/05/22 06:59:53;;;;;;;1.50;0.90;;;14.80;99.90;;;;;;4895499;29;20405;-74
2021/05/22 07:02:19;;;;;;;0.70;0.70;;;14.60;99.90;;;;;;4877565;29;20412;-79
2021/05/22 07:04:44;;;;;;;0.77;0.77;;;14.60;99.90;;;;;;4891216;29;20407;-75
2021/05/22 07:07:10;;;;;;;1.10;1.10;;;14.50;99.90;;;;;;4879867;29;20403;-76
2021/05/22 07:09:36;;;;;;;0.77;0.77;;;14.50;99.90;;;;;;4888088;29;20402;-77
2021/05/22 07:12:01;;;;;;;1.00;0.90;;;14.40;99.90;;;;;;4910677;29;20693;-76
2021/05/22 07:14:28;;;;;;;0.80;0.80;;;14.40;99.90;;;;;;4912013;29;20411;-75
2021/05/22 07:16:55;;;;;;;0.95;0.90;;;14.30;99.90;;;;;;4895325;29;20396;-75
2021/05/22 07:19:21;;;;;;;0.82;0.82;;;14.30;99.90;;;;;;4896205;29;20395;-73
2021/05/22 07:21:47;;;;;;;1.60;0.90;;;14.10;99.90;;;;;;4864434;29;20399;-87
2021/05/22 07:24:12;;;;;;;0.80;0.80;;;13.80;99.90;;;;;;4877894;29;20389;-86
2021/05/22 07:26:38;;;;;;;1.40;0.80;;;13.70;99.90;;;;;;4860880;29;20472;-85
2021/05/22 07:29:04;;;;;;;3.50;0.80;;;13.60;99.90;;;;;;4871398;29;20994;-76
2021/05/22 07:31:32;;;;;;;1.10;1.00;;;13.40;99.90;;;;;;4873269;29;20851;-76
2021/05/22 07:33:58;;;;;;;0.80;0.80;;;13.20;99.90;;;;;;4908623;29;20423;-74
2021/05/22 07:36:24;;;;;;;1.48;1.35;;;13.00;99.90;;;;;;4894925;29;21004;-75
2021/05/22 07:38:50;;;;;;;1.00;0.82;;;13.00;99.90;;;;;;4878742;29;20419;-74
2021/05/22 07:41:15;;;;;;;0.80;0.80;;;12.90;99.90;;;;;;4925251;29;20418;-80
2021/05/22 07:43:41;;;;;;;1.00;0.87;;;13.00;99.90;;;;;;4907782;29;20405;-77
2021/05/22 07:46:07;;;;;;;0.88;0.85;;;13.20;99.90;;;;;;4924055;29;20424;-80
2021/05/22 07:48:33;;;;;;;0.80;0.80;;;13.30;99.90;;;;;;4906298;29;20547;-75
2021/05/22 07:50:58;;;;;;;2.17;1.27;;;13.50;99.90;;;;;;4894494;29;20415;-73
2021/05/22 07:53:24;;;;;;;1.30;1.20;;;13.60;99.90;;;;;;4887407;29;20412;-75
2021/05/22 07:55:50;;;;;;;0.80;0.80;;;13.60;99.90;;;;;;4926976;29;20426;-79
2021/05/22 07:58:16;;;;;;;1.10;1.00;;;13.60;99.90;;;;;;4893379;29;20488;-76
2021/05/22 08:00:45;;;;;;;0.73;0.73;;;13.70;99.90;;;;;;4925900;29;20558;-76
2021/05/22 08:03:10;;;;;;;0.80;0.80;;;13.70;99.90;;;;;;4883722;29;20739;-74
2021/05/22 08:05:36;;;;;;;0.80;0.80;;;13.80;99.90;;;;;;4879127;29;20424;-76
2021/05/22 08:08:02;;;;;;;0.80;0.80;;;13.90;99.90;;;;;;4876763;29;20451;-73
2021/05/22 08:10:28;;;;;;;0.80;0.80;;;14.00;99.90;;;;;;4887273;29;20824;-77
2021/05/22 08:12:53;;;;;;;0.80;0.80;;;14.10;99.90;;;;;;4899468;29;20781;-76
2021/05/22 08:15:19;;;;;;;1.10;0.70;;;14.20;99.90;;;;;;4945943;29;20494;-82
2021/05/22 08:17:45;;;;;;;0.70;0.70;;;14.40;99.90;;;;;;4896045;29;20904;-76
2021/05/22 08:20:11;;;;;;;0.90;0.90;;;14.60;99.90;;;;;;4880097;29;20409;-75
2021/05/22 08:22:37;;;;;;;1.23;1.20;;;14.80;99.90;;;;;;4889342;29;20939;-80
2021/05/22 08:25:05;;;;;;;0.73;0.73;;;15.00;99.90;;;;;;4906294;29;20407;-76
2021/05/22 08:27:30;;;;;;;0.80;0.80;;;15.20;99.90;;;;;;4897949;29;20981;-77
2021/05/22 08:29:56;;;;;;;1.00;0.80;;;15.40;99.90;;;;;;4894126;29;20472;-81
2021/05/22 08:32:23;;;;;;;0.50;0.50;;;15.50;99.90;;;;;;4910657;29;20467;-74
2021/05/22 08:34:48;;;;;;;2.50;0.80;;;15.60;99.90;;;;;;4894592;29;20432;-75
2021/05/22 08:37:18;;;;;;;1.08;0.98;;;15.70;99.90;;;;;;4879847;29;20424;-74
2021/05/22 08:39:44;;;;;;;0.67;0.60;;;15.80;99.90;;;;;;4879090;29;20409;-75
2021/05/22 08:42:21;;;;;;;0.60;0.60;;;15.50;99.90;;;;;;4871061;29;20463;-76
2021/05/22 08:44:46;;;;;;;0.60;0.60;;;15.60;99.90;;;;;;4900196;29;20406;-78
2021/05/22 08:47:12;;;;;;;0.68;0.68;;;15.60;99.90;;;;;;4909814;29;20494;-73
2021/05/22 08:49:41;;;;;;;1.23;1.00;;;15.90;99.90;;;;;;4898068;29;20558;-79
2021/05/22 08:52:11;;;;;;;0.85;0.85;;;16.10;99.90;;;;;;4884230;29;20422;-76
2021/05/22 08:54:37;;;;;;;1.20;1.10;;;16.30;99.90;;;;;;4867723;29;20392;-76
2021/05/22 08:57:03;;;;;;;0.75;0.75;;;16.40;99.90;;;;;;4879492;29;20425;-79
2021/05/22 08:59:29;;;;;;;0.97;0.70;;;16.30;99.90;;;;;;4882713;29;20434;-76
2021/05/22 09:01:55;;;;;;;0.82;0.82;;;16.40;99.90;;;;;;4906088;29;20420;-79
2021/05/22 09:04:21;;;;;;;1.63;0.95;;;16.40;99.90;;;;;;4930372;29;20479;-77
2021/05/22 09:07:03;;;;;;;0.70;0.70;;;16.70;99.90;;;;;;4914387;29;20825;-80
2021/05/22 09:09:41;;;;;;;1.50;0.70;;;17.20;99.90;;;;;;4897644;29;20412;-76
2021/05/22 09:12:07;;;;;;;2.00;0.90;;;17.50;99.90;;;;;;4911786;29;20960;-77
2021/05/22 09:14:48;;;;;;;0.80;0.80;;;17.50;99.90;;;;;;4896000;29;20405;-77
2021/05/22 09:17:14;;;;;;;1.00;0.65;;;17.50;99.90;;;;;;4910560;29;20424;-82
2021/05/22 09:19:40;;;;;;;0.93;0.90;;;17.70;99.90;;;;;;4911439;29;20821;-76
2021/05/22 09:22:13;;;;;;;1.48;0.73;;;17.60;99.90;;;;;;4911197;29;20425;-76
2021/05/22 09:24:55;;;;;;;0.90;0.88;;;17.50;99.90;;;;;;4924307;29;20482;-77
2021/05/22 09:27:21;;;;;;;0.70;0.70;;;17.40;99.90;;;;;;4898424;29;20403;-78
2021/05/22 09:29:48;;;;;;;0.70;0.70;;;17.40;99.90;;;;;;4931151;29;20432;-76
2021/05/22 09:32:15;;;;;;;1.40;0.63;;;17.70;99.90;;;;;;4879623;29;20409;-80
2021/05/22 09:34:40;;;;;;;1.58;0.70;;;17.90;99.90;;;;;;4877849;29;20407;-75
2021/05/22 09:37:13;;;;;;;0.90;0.90;;;17.90;99.90;;;;;;4865181;29;20943;-75
2021/05/22 09:39:48;;;;;;;0.90;0.90;;;18.00;99.90;;;;;;4864100;29;20425;-79
2021/05/22 09:42:14;;;;;;;1.00;0.90;;;17.80;99.90;;;;;;4910964;29;20415;-77
2021/05/22 09:44:40;;;;;;;2.05;1.20;;;17.80;99.90;;;;;;4874080;29;20413;-78
2021/05/22 09:47:07;;;;;;;1.70;1.37;;;17.60;99.90;;;;;;4882234;29;20936;-80
2021/05/22 09:49:34;;;;;;;2.72;1.50;;;17.40;99.90;;;;;;4897486;29;20400;-79
2021/05/22 09:52:20;;;;;;;17.63;14.55;;;17.70;99.90;;;;;;4895087;29;20408;-77
2021/05/22 09:54:52;;;;;;;22.75;17.48;;;18.00;99.90;;;;;;4877315;29;20408;-82
2021/05/22 09:57:21;;;;;;;3.13;1.60;;;18.00;99.90;;;;;;4884604;29;20459;-76
2021/05/22 10:00:10;;;;;;;13.93;11.27;;;18.10;99.90;;;;;;4894974;29;20427;-75
2021/05/22 10:02:40;;;;;;;35.97;30.23;;;18.10;99.90;;;;;;4913095;29;20463;-76
2021/05/22 10:05:17;;;;;;;94.47;69.90;;;18.60;99.90;;;;;;4902820;29;20392;-75
2021/05/22 10:07:44;;;;;;;1.65;1.55;;;18.90;99.90;;;;;;4883136;29;20486;-76
2021/05/22 10:10:10;;;;;;;38.83;27.17;;;19.00;99.90;;;;;;4883805;29;20439;-77
2021/05/22 10:12:36;;;;;;;6.03;4.25;;;19.30;99.90;;;;;;4867633;29;20460;-77
2021/05/22 10:15:03;;;;;;;4.63;3.55;;;19.80;99.90;;;;;;4867768;29;20459;-77
2021/05/22 10:17:29;;;;;;;9.40;7.60;;;20.20;99.90;;;;;;4898716;29;20907;-78
2021/05/22 10:19:55;;;;;;;15.20;9.10;;;20.50;99.90;;;;;;4882814;29;20414;-76
2021/05/22 10:22:21;;;;;;;29.23;21.05;;;20.30;99.90;;;;;;4913036;29;20441;-76
2021/05/22 10:24:47;;;;;;;16.73;11.83;;;20.30;99.90;;;;;;4883985;29;20420;-78
2021/05/22 10:27:12;;;;;;;1.65;1.15;;;20.20;99.90;;;;;;4881631;29;20797;-76
2021/05/22 10:29:38;;;;;;;35.45;21.60;;;20.30;99.30;;;;;;4896013;29;20406;-76
2021/05/22 10:32:04;;;;;;;1.60;0.90;;;20.50;99.90;;;;;;4865682;29;20927;-76
2021/05/22 10:34:35;;;;;;;1.02;0.82;;;20.80;99.20;;;;;;4897643;29;20404;-78
2021/05/22 10:37:01;;;;;;;1.17;0.88;;;21.00;99.20;;;;;;4913773;29;20410;-76
2021/05/22 10:39:41;;;;;;;0.70;0.70;;;21.30;98.70;;;;;;4881873;29;20396;-76
2021/05/22 10:42:08;;;;;;;2.17;1.48;;;21.40;98.10;;;;;;4897410;29;20411;-76
2021/05/22 10:44:37;;;;;;;2.50;1.20;;;20.90;94.80;;;;;;4878482;29;20488;-77
2021/05/22 10:47:05;;;;;;;1.60;0.82;;;20.10;98.00;;;;;;4896131;29;20423;-77
2021/05/22 10:49:49;;;;;;;1.00;0.75;;;19.50;95.70;;;;;;4880743;29;20848;-76
2021/05/22 10:52:32;;;;;;;1.10;1.00;;;19.80;94.70;;;;;;4910867;29;20427;-75
2021/05/22 10:55:07;;;;;;;0.80;0.80;;;20.30;95.00;;;;;;4891967;29;20395;-77
2021/05/22 10:57:57;;;;;;;0.60;0.60;;;20.50;93.40;;;;;;4898635;29;20815;-76
2021/05/22 11:00:24;;;;;;;0.85;0.68;;;20.50;93.80;;;;;;4929229;29;20471;-77
2021/05/22 11:02:52;;;;;;;2.40;0.83;;;20.50;93.00;;;;;;4882062;29;20411;-77
2021/05/22 11:05:21;;;;;;;1.60;0.82;;;20.70;92.50;;;;;;4894659;29;20984;-77
2021/05/22 11:07:47;;;;;;;0.70;0.70;;;20.70;93.90;;;;;;4902357;29;20419;-77
2021/05/22 11:10:49;;;;;;;1.20;0.80;;;20.90;91.80;;;;;;4897300;29;20392;-76
2021/05/22 11:13:20;;;;;;;1.20;0.73;;;21.40;90.30;;;;;;4897875;29;20406;-77
2021/05/22 11:15:56;;;;;;;4.60;0.65;;;21.80;85.70;;;;;;4899133;29;20887;-77
2021/05/22 11:18:31;;;;;;;1.23;0.80;;;22.00;82.40;;;;;;4899920;29;20427;-76
2021/05/22 11:21:22;;;;;;;0.50;0.50;;;21.70;82.60;;;;;;4895370;29;20410;-77
2021/05/22 11:23:57;;;;;;;0.60;0.60;;;21.20;80.50;;;;;;4913289;29;20404;-78
2021/05/22 11:26:45;;;;;;;0.70;0.70;;;21.20;85.00;;;;;;4893238;29;20402;-76
2021/05/22 11:29:11;;;;;;;1.00;0.90;;;21.10;79.50;;;;;;4922128;29;20408;-77
2021/05/22 11:31:37;;;;;;;0.70;0.70;;;21.10;79.60;;;;;;4896853;29;20761;-76
2021/05/22 11:34:21;;;;;;;1.37;0.77;;;21.20;80.90;;;;;;4878692;29;20405;-76
2021/05/22 11:37:12;;;;;;;0.70;0.70;;;21.10;77.40;;;;;;4897075;29;20439;-76
2021/05/22 11:39:44;;;;;;;0.93;0.93;;;21.00;79.00;;;;;;4913399;29;20977;-76
2021/05/22 11:42:33;;;;;;;0.60;0.60;;;20.80;80.50;;;;;;4914249;29;20446;-77
2021/05/22 11:44:59;;;;;;;0.90;0.85;;;20.20;80.20;;;;;;4895209;29;20419;-76
2021/05/22 11:47:35;;;;;;;0.80;0.73;;;19.90;80.90;;;;;;4895302;29;21144;-76
2021/05/22 11:50:01;;;;;;;0.77;0.75;;;19.90;81.60;;;;;;4887290;29;20400;-76
2021/05/22 11:52:31;;;;;;;0.90;0.77;;;20.40;82.20;;;;;;4929758;29;20403;-76
2021/05/22 11:54:57;;;;;;;0.80;0.80;;;20.90;81.30;;;;;;4869373;29;20413;-76
2021/05/22 11:57:23;;;;;;;0.93;0.80;;;20.80;80.20;;;;;;4871517;29;20426;-77
2021/05/22 11:59:49;;;;;;;0.60;0.60;;;20.70;82.50;;;;;;4899596;29;20423;-77
2021/05/22 12:02:34;;;;;;;2.30;1.13;;;21.20;83.00;;;;;;4884209;29;20773;-77
2021/05/22 12:05:00;;;;;;;0.70;0.70;;;21.00;76.70;;;;;;4899462;29;20423;-77
2021/05/22 12:07:26;;;;;;;1.10;0.90;;;20.90;74.30;;;;;;4883556;29;20430;-77
2021/05/22 12:09:52;;;;;;;0.43;0.43;;;20.60;75.80;;;;;;4885729;29;20395;-77
2021/05/22 12:12:27;;;;;;;3.50;0.90;;;20.40;76.40;;;;;;4885053;29;20990;-76
2021/05/22 12:14:53;;;;;;;0.98;0.70;;;20.30;77.70;;;;;;4901110;29;20490;-76
2021/05/22 12:17:20;;;;;;;2.08;1.13;;;20.50;77.70;;;;;;4915457;29;20400;-75
2021/05/22 12:19:47;;;;;;;0.65;0.65;;;20.30;77.40;;;;;;4927979;29;20933;-76
2021/05/22 12:22:13;;;;;;;0.75;0.75;;;20.20;76.70;;;;;;4895028;29;20899;-76
2021/05/22 12:24:39;;;;;;;1.02;0.85;;;20.40;80.60;;;;;;4911785;29;20906;-77
2021/05/22 12:27:05;;;;;;;1.30;0.90;;;20.30;73.10;;;;;;4884052;29;20405;-76
2021/05/22 12:29:31;;;;;;;0.90;0.90;;;20.00;76.10;;;;;;4913797;29;21032;-76
2021/05/22 12:32:00;;;;;;;0.70;0.70;;;19.70;74.40;;;;;;4911590;29;20427;-76
2021/05/22 12:34:30;;;;;;;0.75;0.75;;;20.20;78.20;;;;;;4883256;29;20407;-76
2021/05/22 12:36:57;;;;;;;0.80;0.80;;;20.50;82.00;;;;;;4899502;29;20467;-76
2021/05/22 12:39:24;;;;;;;0.70;0.70;;;20.70;77.80;;;;;;4885636;29;20410;-77
2021/05/22 12:41:50;;;;;;;1.47;1.00;;;20.40;77.40;;;;;;4870488;29;20391;-77
2021/05/22 12:44:20;;;;;;;1.42;0.82;;;20.30;77.30;;;;;;4866127;29;20461;-76
2021/05/22 12:46:56;;;;;;;0.75;0.70;;;20.20;79.80;;;;;;4911786;29;20476;-77
2021/05/22 12:49:22;;;;;;;1.20;0.80;;;20.20;77.80;;;;;;4917602;29;20408;-78